AV - LB | Pilotos de la V.A




 METAR AND TAF INFORMATION
METAR FOR SARC
ADDS - METARS form results

(0007 UTC 20 January 2021)
Data provider http://aviationweather.gov/metar/data/
 
METAR text: SARC 200000Z 18005KT CAVOK 25/14 Q1012
Conditions at: SARC (CORRIENTES AIRPO, AR) observed 0000 UTC 20 January 2021
Temperature: 25.0°C (77°F)
Dewpoint: 14.0°C (57°F) [RH = 50%]
Pressure (altimeter): 29.88 inches Hg (1012.0 mb)
Winds: from the S (180 degrees) at 6 MPH (5 knots; 2.6 m/s)
Visibility: 6 or more miles (10+ km)
Ceiling: ceiling and visibility are OK
Clouds: unknown
Weather: no significant weather observed at this time

 AIRPORT MAP

 RUNWAY INFORMATION
Runway 2 Runway length 6890 ft Runway width 148 ft
Runway elevation 202 ft Runway displaced threshold 0 ft Runway heading 8
Runway 20 Runway length 6890 ft Runway width 148 ft
Runway elevation 199 ft Runway displaced threshold 0 ft Runway heading 188

 AIRPORT FREQUENCIES
Type TWR Name TWR Frequency 118.3 MHZ

 AIRPORT NEAR NAVIGATION AIDS
Type NDB Name Corrientes Frequency 305 KHZ
Type VOR-DME Name Corrientes Frequency 115400 KHZ